Time;durP1;ratioP1;P1;durP2;ratioP2;P2;SDS_P1;SDS_P2;PMS_P1;PMS_P2;Temp;Humidity;BMP_temperature;BMP_pressure;BME280_temperature;BME280_humidity;BME280_pressure;Samples;Min_cycle;Max_cycle;Signal;HPM_P1;HPM_P2
2023/09/04 00:01:06;;;;;;;7.63;4.32;;;;;;;16.00;97.13;101779.13;4918315;29;20418;-73
2023/09/04 00:04:09;;;;;;;7.53;3.83;;;;;;;16.12;96.59;101767.03;4914285;29;20070;-73
2023/09/04 00:07:12;;;;;;;5.57;3.80;;;;;;;16.06;96.87;101783.22;4918298;29;20043;-73
2023/09/04 00:10:16;;;;;;;5.05;3.65;;;;;;;16.09;96.72;101775.97;4918186;29;20047;-73
2023/09/04 00:13:19;;;;;;;5.65;3.30;;;;;;;16.16;95.88;101779.13;4906340;29;20059;-73
2023/09/04 00:16:22;;;;;;;8.52;3.80;;;;;;;16.18;95.76;101782.53;4917961;29;20063;-73
2023/09/04 00:19:26;;;;;;;7.80;3.80;;;;;;;16.15;95.54;101777.44;4917959;29;20047;-73
2023/09/04 00:22:30;;;;;;;8.30;4.07;;;;;;;16.11;94.98;101778.50;4918063;29;20062;-73
2023/09/04 00:25:33;;;;;;;8.10;4.68;;;;;;;16.01;95.65;101780.81;4915898;29;20103;-73
2023/09/04 00:28:36;;;;;;;13.63;4.57;;;;;;;15.92;96.38;101792.75;4916095;29;20084;-73
2023/09/04 00:31:40;;;;;;;7.50;4.47;;;;;;;15.89;96.95;101782.34;4916312;29;20162;-73
2023/09/04 00:34:43;;;;;;;8.52;4.53;;;;;;;15.97;96.35;101788.03;4917588;29;20471;-73
2023/09/04 00:37:46;;;;;;;14.80;4.70;;;;;;;15.99;96.04;101780.91;4917287;29;20486;-73
2023/09/04 00:40:50;;;;;;;5.85;4.22;;;;;;;15.98;95.75;101778.34;4917501;29;20107;-73
2023/09/04 00:43:53;;;;;;;13.90;4.68;;;;;;;15.97;94.89;101784.56;4917455;29;20055;-73
2023/09/04 00:46:58;;;;;;;9.15;3.88;;;;;;;15.92;95.18;101781.31;4904755;29;20074;-73
2023/09/04 00:50:01;;;;;;;7.60;3.90;;;;;;;15.81;94.73;101774.00;4894394;29;20059;-73
2023/09/04 00:53:06;;;;;;;7.43;3.92;;;;;;;15.79;94.40;101787.28;4917516;29;20410;-73
2023/09/04 00:56:13;;;;;;;9.38;3.72;;;;;;;15.66;94.83;101782.69;4917310;29;20066;-73
2023/09/04 00:59:16;;;;;;;8.25;3.97;;;;;;;15.66;94.98;101777.41;4916862;29;20138;-73
2023/09/04 01:02:19;;;;;;;4.68;3.65;;;;;;;15.68;93.56;101772.97;4916210;29;20051;-73
2023/09/04 01:05:22;;;;;;;12.75;4.50;;;;;;;15.72;92.97;101774.47;4904841;29;20430;-73
2023/09/04 01:08:26;;;;;;;7.05;3.60;;;;;;;15.75;91.78;101775.16;4917145;29;20577;-73
2023/09/04 01:11:37;;;;;;;5.72;3.42;;;;;;;15.72;90.82;101774.47;4905323;29;20048;-73
2023/09/04 01:14:45;;;;;;;10.15;3.67;;;;;;;15.67;90.30;101768.63;4916837;29;20111;-73
2023/09/04 01:17:51;;;;;;;5.50;3.10;;;;;;;15.60;90.61;101770.69;4897784;29;20140;-74
2023/09/04 01:21:08;;;;;;;10.18;3.33;;;;;;;15.66;90.86;101769.50;4897608;29;20087;-74
2023/09/04 01:24:12;;;;;;;7.93;3.75;;;;;;;15.67;90.47;101766.84;4894458;29;20056;-74
2023/09/04 01:27:15;;;;;;;6.72;3.58;;;;;;;15.59;90.54;101764.56;4897964;29;20414;-74
2023/09/04 01:30:38;;;;;;;6.53;3.58;;;;;;;15.54;91.74;101761.34;4886269;29;20089;-73
2023/09/04 01:33:58;;;;;;;;;;;;;;;15.58;92.38;101751.47;4886393;29;20059;-74
2023/09/04 01:37:04;;;;;;;6.72;3.80;;;;;;;15.43;94.21;101753.13;4886523;29;19922;-74
2023/09/04 01:40:07;;;;;;;7.18;3.83;;;;;;;15.49;94.23;101751.97;4886174;29;20039;-74
2023/09/04 01:43:11;;;;;;;8.63;3.67;;;;;;;15.54;93.61;101750.78;4897543;29;20079;-74
2023/09/04 01:46:14;;;;;;;5.63;3.78;;;;;;;15.54;93.05;101750.78;4897865;29;20151;-73
2023/09/04 01:49:17;;;;;;;5.40;3.20;;;;;;;15.49;92.60;101750.19;4897361;29;20514;-73
2023/09/04 01:52:21;;;;;;;8.50;3.35;;;;;;;15.45;92.90;101745.16;4897692;29;20050;-73
2023/09/04 01:55:25;;;;;;;7.00;3.60;;;;;;;15.44;92.75;101744.28;4886270;29;20478;-73
2023/09/04 01:58:28;;;;;;;8.65;3.67;;;;;;;15.45;92.54;101743.38;4896954;29;20149;-74
2023/09/04 02:01:31;;;;;;;5.43;3.97;;;;;;;15.32;92.37;101744.97;4885791;29;20071;-73
2023/09/04 02:04:35;;;;;;;8.98;4.18;;;;;;;15.30;92.76;101752.09;4897358;29;20051;-73
2023/09/04 02:07:38;;;;;;;8.48;4.57;;;;;;;15.27;92.98;101752.25;4896989;29;20064;-73
2023/09/04 02:10:42;;;;;;;7.25;4.28;;;;;;;15.22;92.88;101754.25;4897301;29;20563;-73
2023/09/04 02:13:45;;;;;;;8.85;5.07;;;;;;;15.09;93.95;101754.91;4885872;29;20051;-73
2023/09/04 02:16:49;;;;;;;9.20;4.35;;;;;;;15.11;94.13;101763.56;4901111;29;20059;-73
2023/09/04 02:19:52;;;;;;;5.80;4.05;;;;;;;15.09;94.65;101759.31;4891503;29;20095;-73
2023/09/04 02:22:56;;;;;;;9.63;3.70;;;;;;;15.16;94.52;101759.88;4920075;29;20047;-73
2023/09/04 02:25:59;;;;;;;9.80;3.67;;;;;;;15.17;94.25;101751.03;4920163;29;20047;-73
2023/09/04 02:29:03;;;;;;;6.97;3.42;;;;;;;15.08;94.60;101753.19;4908449;29;20414;-73
2023/09/04 02:32:06;;;;;;;13.55;4.15;;;;;;;14.99;94.23;101743.13;4897722;29;20051;-73
2023/09/04 02:35:12;;;;;;;7.07;3.95;;;;;;;15.10;94.35;101743.44;4919916;29;20139;-73
2023/09/04 02:38:17;;;;;;;4.68;4.07;;;;;;;14.99;94.35;101747.53;4919029;29;20154;-73
2023/09/04 02:41:24;;;;;;;11.00;4.53;;;;;;;14.96;94.29;101738.00;4918995;29;20043;-73
2023/09/04 02:44:28;;;;;;;5.10;3.58;;;;;;;14.99;94.01;101753.66;4918205;29;20050;-73
2023/09/04 02:47:31;;;;;;;12.65;3.58;;;;;;;15.00;93.67;101749.28;4917481;29;20055;-73
2023/09/04 02:50:34;;;;;;;8.07;4.10;;;;;;;14.93;93.58;101742.59;4918694;29;20115;-73
2023/09/04 02:53:38;;;;;;;5.82;3.05;;;;;;;14.90;93.88;101743.63;4907354;29;20464;-73
2023/09/04 02:56:41;;;;;;;8.48;3.65;;;;;;;14.79;94.43;101730.97;4907421;29;20047;-73
2023/09/04 02:59:44;;;;;;;20.38;3.97;;;;;;;14.45;96.73;101739.66;4918646;29;20099;-73
2023/09/04 03:02:50;;;;;;;6.80;3.53;;;;;;;14.38;97.23;101738.28;4919268;29;20099;-73
2023/09/04 03:05:53;;;;;;;6.80;3.63;;;;;;;14.50;96.29;101745.56;4919407;29;20512;-73
2023/09/04 03:08:56;;;;;;;4.32;2.92;;;;;;;14.51;96.27;101730.66;4919569;29;20106;-73
2023/09/04 03:12:00;;;;;;;4.30;3.40;;;;;;;14.60;95.56;101727.56;4907512;29;20128;-73
2023/09/04 03:15:06;;;;;;;6.78;3.30;;;;;;;14.63;94.24;101733.53;4907363;29;20047;-73
2023/09/04 03:18:10;;;;;;;7.32;3.00;;;;;;;14.65;93.92;101725.59;4896895;29;20062;-73
2023/09/04 03:21:13;;;;;;;5.20;3.45;;;;;;;14.62;92.99;101726.56;4907373;29;20414;-74
2023/09/04 03:24:20;;;;;;;10.98;4.28;;;;;;;14.49;93.58;101728.09;4907671;29;20139;-74
2023/09/04 03:27:23;;;;;;;10.18;4.25;;;;;;;14.41;94.00;101732.88;4907629;29;20051;-73
2023/09/04 03:30:27;;;;;;;5.43;3.53;;;;;;;14.39;94.63;101729.47;4906815;29;20051;-73
2023/09/04 03:33:31;;;;;;;5.25;3.38;;;;;;;14.31;95.23;101728.97;4907398;29;20111;-73
2023/09/04 03:36:34;;;;;;;8.23;2.97;;;;;;;14.42;94.70;101732.81;4918844;29;20146;-73
2023/09/04 03:39:38;;;;;;;10.02;3.42;;;;;;;14.51;94.51;101736.78;4918908;29;20106;-73
2023/09/04 03:42:41;;;;;;;10.40;3.53;;;;;;;14.53;94.40;101740.19;4906964;29;20051;-72
2023/09/04 03:45:45;;;;;;;9.55;3.58;;;;;;;14.57;93.15;101741.72;4906750;29;20167;-74
2023/09/04 03:48:48;;;;;;;6.47;3.65;;;;;;;14.50;92.47;101742.09;4896333;29;20422;-74
2023/09/04 03:51:52;;;;;;;9.35;3.67;;;;;;;14.43;92.34;101738.91;4918692;29;20043;-74
2023/09/04 03:54:56;;;;;;;10.57;3.65;;;;;;;14.40;92.60;101733.81;4906538;29;20139;-74
2023/09/04 03:57:59;;;;;;;8.35;3.42;;;;;;;14.41;91.91;101735.50;4906648;29;20082;-77
2023/09/04 04:01:03;;;;;;;8.27;3.00;;;;;;;14.36;92.99;101741.00;4906653;29;20047;-73
2023/09/04 04:04:10;;;;;;;6.43;2.70;;;;;;;14.39;92.76;101737.38;4913669;29;20090;-73
2023/09/04 04:07:14;;;;;;;11.77;3.33;;;;;;;14.26;93.23;101730.97;4918056;29;20460;-74
2023/09/04 04:10:17;;;;;;;5.00;3.10;;;;;;;14.25;93.91;101735.38;4906062;29;20047;-75
2023/09/04 04:13:20;;;;;;;6.35;3.25;;;;;;;14.23;94.03;101733.75;4906280;29;20059;-73
2023/09/04 04:16:24;;;;;;;9.68;2.90;;;;;;;14.23;93.70;101731.13;4917792;29;20098;-71
2023/09/04 04:19:28;;;;;;;5.90;2.90;;;;;;;14.14;94.41;101730.66;4917791;29;20051;-73
2023/09/04 04:22:31;;;;;;;4.22;2.53;;;;;;;14.14;94.78;101733.28;4917623;29;20047;-73
2023/09/04 04:25:35;;;;;;;5.80;3.03;;;;;;;14.10;95.95;101730.84;4917684;29;20047;-67
2023/09/04 04:28:38;;;;;;;8.15;2.85;;;;;;;14.15;95.27;101740.25;4917811;29;20102;-73
2023/09/04 04:31:42;;;;;;;4.30;2.70;;;;;;;14.18;93.70;101740.09;4917599;29;20078;-72
2023/09/04 04:34:48;;;;;;;;;;;;;;;14.10;93.53;101747.53;4905889;29;20058;-72
2023/09/04 04:37:51;;;;;;;5.43;2.53;;;;;;;14.04;93.72;101745.19;4916570;29;19930;-72
2023/09/04 04:40:58;;;;;;;8.98;3.50;;;;;;;14.04;93.15;101745.19;4903526;29;20119;-74
2023/09/04 04:44:02;;;;;;;5.38;2.92;;;;;;;13.69;95.60;101742.41;4904270;29;20047;-74
2023/09/04 04:47:06;;;;;;;6.60;2.80;;;;;;;13.85;95.24;101741.72;4904389;29;20054;-74
2023/09/04 04:50:10;;;;;;;7.40;2.90;;;;;;;13.84;95.78;101742.59;4903807;29;20047;-73
2023/09/04 04:53:14;;;;;;;10.32;3.10;;;;;;;13.81;95.95;101729.59;4903607;29;20083;-73
2023/09/04 04:56:17;;;;;;;8.85;2.97;;;;;;;13.75;95.45;101740.41;4900835;29;20047;-73
2023/09/04 04:59:23;;;;;;;7.63;3.97;;;;;;;13.62;95.44;101745.38;4903992;29;20103;-73
2023/09/04 05:02:29;;;;;;;4.30;3.13;;;;;;;13.50;96.50;101752.06;4903854;29;20094;-73
2023/09/04 05:05:33;;;;;;;7.00;2.90;;;;;;;13.39;97.24;101752.50;4903589;29;20082;-73
2023/09/04 05:08:38;;;;;;;16.90;2.60;;;;;;;13.41;96.56;101753.31;4903753;29;20094;-72
2023/09/04 05:11:42;;;;;;;14.60;2.97;;;;;;;13.42;96.61;101748.91;4915718;29;20195;-72
2023/09/04 05:14:47;;;;;;;5.20;2.60;;;;;;;13.42;97.20;101752.38;4915227;29;20047;-72
2023/09/04 05:17:52;;;;;;;2.92;2.20;;;;;;;13.47;97.65;101754.81;4915395;29;20122;-72
2023/09/04 05:20:56;;;;;;;4.72;2.25;;;;;;;13.52;97.65;101760.69;4903321;29;20043;-72
2023/09/04 05:23:59;;;;;;;12.88;2.70;;;;;;;13.46;97.72;101768.84;4903210;29;20047;-73
2023/09/04 05:27:03;;;;;;;4.25;2.58;;;;;;;13.67;96.55;101775.78;4903032;29;20091;-72
2023/09/04 05:30:06;;;;;;;5.43;2.80;;;;;;;13.56;96.83;101767.56;4915023;29;20095;-72
2023/09/04 05:33:10;;;;;;;7.97;2.47;;;;;;;13.54;96.76;101769.38;4914866;29;20050;-72
2023/09/04 05:36:13;;;;;;;7.38;2.58;;;;;;;13.74;96.36;101776.34;4914989;29;20079;-65
2023/09/04 05:39:17;;;;;;;35.00;3.75;;;;;;;13.58;96.50;101768.31;4915001;29;20051;-71
2023/09/04 05:42:20;;;;;;;3.60;2.65;;;;;;;13.64;96.98;101762.78;4902932;29;20131;-71
2023/09/04 05:45:25;;;;;;;4.03;2.22;;;;;;;13.82;95.49;101768.13;4914753;29;20098;-70
2023/09/04 05:48:31;;;;;;;6.38;2.38;;;;;;;13.90;94.82;101766.84;4914704;29;20142;-71
2023/09/04 05:56:34;;;;;;;9.60;2.97;;;;;;;13.75;95.75;101758.81;4871694;29;20048;-70
2023/09/04 05:59:37;;;;;;;;;;;;;;;13.67;96.35;101753.91;4876690;29;20052;-70
2023/09/04 06:02:41;;;;;;;;;;;;;;;13.68;96.24;101760.88;4876761;29;20014;-70
2023/09/04 06:05:46;;;;;;;4.47;2.85;;;;;;;13.75;96.23;101746.50;4876305;29;19964;-71
2023/09/04 06:08:49;;;;;;;7.90;2.70;;;;;;;13.73;95.61;101754.47;4876726;29;20567;-70
2023/09/04 06:11:52;;;;;;;7.43;3.20;;;;;;;13.73;95.53;101743.97;4870812;29;20080;-70
2023/09/04 06:14:55;;;;;;;7.18;3.05;;;;;;;13.87;94.91;101739.84;4876757;29;20520;-70
2023/09/04 06:17:59;;;;;;;11.90;2.95;;;;;;;13.87;94.66;101747.72;4895486;29;20487;-70
2023/09/04 06:21:03;;;;;;;3.90;2.58;;;;;;;13.83;95.43;101738.28;4895451;29;20071;-70
2023/09/04 06:24:06;;;;;;;4.53;3.35;;;;;;;13.86;95.02;101738.16;4890948;29;20108;-70
2023/09/04 06:27:10;;;;;;;3.45;2.90;;;;;;;13.90;94.54;101740.53;4895748;29;20126;-70
2023/09/04 06:30:13;;;;;;;6.60;2.90;;;;;;;13.84;94.88;101737.34;4895426;29;20077;-70
2023/09/04 06:33:16;;;;;;;;;;;;;;;14.11;93.61;101736.06;4895795;29;20522;-70
2023/09/04 06:36:20;;;;;;;3.63;2.38;;;;;;;14.04;94.56;101745.19;4895304;29;20469;-70
2023/09/04 06:39:23;;;;;;;4.65;2.63;;;;;;;14.03;94.99;101746.09;4895317;29;20518;-70
2023/09/04 06:42:27;;;;;;;6.60;2.70;;;;;;;14.13;94.92;101741.22;4895344;29;20413;-70
2023/09/04 06:45:30;;;;;;;3.42;2.40;;;;;;;14.12;94.41;101735.13;4883878;29;20136;-70
2023/09/04 06:48:33;;;;;;;4.60;3.28;;;;;;;14.06;95.89;101734.56;4895100;29;20062;-69
2023/09/04 06:51:36;;;;;;;3.50;2.58;;;;;;;14.11;96.55;101727.31;4894931;29;20161;-74
2023/09/04 06:54:40;;;;;;;5.68;2.78;;;;;;;14.23;96.06;101731.13;4895431;29;20075;-70
2023/09/04 06:57:43;;;;;;;4.75;2.67;;;;;;;14.34;95.45;101729.69;4895340;29;20108;-71
2023/09/04 07:00:47;;;;;;;5.15;2.58;;;;;;;14.43;95.83;101720.50;4895355;29;20107;-70
2023/09/04 07:03:50;;;;;;;3.53;2.42;;;;;;;14.55;95.02;101717.28;4884667;29;20139;-70
2023/09/04 07:06:54;;;;;;;6.43;2.60;;;;;;;14.67;94.43;101718.44;4899190;29;20423;-70
2023/09/04 07:09:57;;;;;;;4.07;2.35;;;;;;;14.80;94.76;101714.25;4899132;29;20100;-70
2023/09/04 07:13:01;;;;;;;6.60;2.80;;;;;;;14.89;94.99;101715.56;4898660;29;20055;-70
2023/09/04 07:16:04;;;;;;;7.53;2.75;;;;;;;14.99;94.77;101711.53;4898453;29;20051;-70
2023/09/04 07:19:08;;;;;;;2.78;2.20;;;;;;;15.10;95.80;101708.34;4898725;29;20067;-70
2023/09/04 07:22:11;;;;;;;3.55;2.00;;;;;;;15.26;96.49;101711.03;4898390;29;20415;-69
2023/09/04 07:25:15;;;;;;;5.60;3.20;;;;;;;15.38;95.95;101707.75;4898485;29;20071;-69
2023/09/04 07:28:18;;;;;;;5.93;2.97;;;;;;;15.43;95.30;101700.41;4898720;29;20060;-69
2023/09/04 07:31:22;;;;;;;5.13;2.88;;;;;;;15.54;94.16;101702.50;4898026;29;20521;-68
2023/09/04 07:34:25;;;;;;;6.57;2.78;;;;;;;15.65;93.41;101709.81;4898204;29;20423;-70
2023/09/04 07:37:29;;;;;;;9.85;3.85;;;;;;;15.64;92.57;101697.56;4898032;29;20131;-69
2023/09/04 07:40:34;;;;;;;7.22;3.10;;;;;;;15.76;91.39;101692.50;4897903;29;20060;-70
2023/09/04 07:43:37;;;;;;;8.05;3.28;;;;;;;15.86;91.02;101692.84;4898025;29;20104;-70
2023/09/04 07:46:40;;;;;;;9.73;3.00;;;;;;;15.92;90.44;101687.22;4897954;29;20055;-68
2023/09/04 07:49:45;;;;;;;6.50;3.63;;;;;;;15.92;90.60;101694.25;4897910;29;20075;-69
2023/09/04 07:52:49;;;;;;;6.22;2.80;;;;;;;16.09;90.74;101688.06;4898097;29;20055;-69
2023/09/04 07:55:53;;;;;;;5.53;3.03;;;;;;;16.17;89.98;101693.72;4897781;29;20115;-70
2023/09/04 07:58:59;;;;;;;5.63;3.28;;;;;;;16.18;89.31;101692.81;4897976;29;20091;-69
2023/09/04 08:02:03;;;;;;;6.15;3.20;;;;;;;16.27;88.91;101687.84;4898025;29;20126;-69
2023/09/04 08:05:07;;;;;;;5.82;2.90;;;;;;;16.38;88.07;101700.41;4897525;29;20063;-69
2023/09/04 08:08:10;;;;;;;9.45;2.85;;;;;;;16.45;88.34;101691.19;4897696;29;20059;-69
2023/09/04 08:11:14;;;;;;;6.63;2.83;;;;;;;16.54;87.70;101687.19;4897326;29;20083;-70
2023/09/04 08:14:17;;;;;;;6.22;2.72;;;;;;;16.60;87.58;101688.63;4897187;29;20108;-69
2023/09/04 08:17:20;;;;;;;4.65;2.67;;;;;;;16.65;87.14;101681.25;4896973;29;20079;-71
2023/09/04 08:20:24;;;;;;;7.43;2.75;;;;;;;16.73;86.85;101684.28;4897465;29;20055;-64
2023/09/04 08:23:27;;;;;;;9.10;3.40;;;;;;;16.95;88.46;101684.75;4897730;29;20472;-64
2023/09/04 08:26:30;;;;;;;5.47;2.78;;;;;;;17.05;87.04;101681.53;4897247;29;20051;-64
2023/09/04 08:29:33;;;;;;;7.88;2.67;;;;;;;17.22;87.74;101680.50;4896826;29;20056;-66
2023/09/04 08:32:37;;;;;;;6.75;3.00;;;;;;;17.27;86.42;101676.63;4896840;29;20267;-62
2023/09/04 08:35:40;;;;;;;4.78;2.90;;;;;;;17.44;86.01;101681.69;4897005;29;20059;-64
2023/09/04 08:38:43;;;;;;;7.47;2.85;;;;;;;17.54;85.12;101675.84;4896612;29;20092;-62
2023/09/04 08:41:47;;;;;;;4.10;2.33;;;;;;;17.65;84.87;101679.50;4896740;29;20514;-64
2023/09/04 08:44:51;;;;;;;4.07;2.15;;;;;;;17.80;84.32;101672.41;4896568;29;20108;-63
2023/09/04 08:47:55;;;;;;;5.63;2.80;;;;;;;17.95;83.38;101675.84;4896409;29;20104;-63
2023/09/04 08:50:58;;;;;;;7.25;2.85;;;;;;;18.07;82.22;101668.94;4896288;29;20570;-64
2023/09/04 08:54:02;;;;;;;10.52;2.88;;;;;;;18.18;81.48;101671.69;4896231;29;20083;-62
2023/09/04 08:57:08;;;;;;;5.45;2.60;;;;;;;18.26;81.57;101669.41;4896375;29;20064;-73
2023/09/04 09:00:12;;;;;;;9.82;2.80;;;;;;;18.31;80.95;101669.09;4896305;29;20187;-73
2023/09/04 09:03:16;;;;;;;6.28;2.28;;;;;;;18.43;81.75;101670.06;4896644;29;20116;-74
2023/09/04 09:06:19;;;;;;;5.30;2.40;;;;;;;18.52;80.28;101670.31;4896340;29;20051;-73
2023/09/04 09:09:23;;;;;;;5.28;2.17;;;;;;;18.55;79.78;101669.25;4896588;29;20060;-73
2023/09/04 09:12:26;;;;;;;4.70;2.67;;;;;;;18.54;79.99;101664.91;4896230;29;20460;-73
2023/09/04 09:15:33;;;;;;;4.43;2.22;;;;;;;18.71;80.46;101669.06;4895971;29;20059;-73
2023/09/04 09:18:42;;;;;;;3.88;2.22;;;;;;;18.79;78.41;101659.69;4896232;29;20068;-68
2023/09/04 09:21:45;;;;;;;4.03;2.35;;;;;;;18.93;78.93;101665.81;4896260;29;20043;-68
2023/09/04 09:24:59;;;;;;;4.75;2.42;;;;;;;19.03;78.29;101659.75;4896029;29;20048;-68
2023/09/04 09:28:06;;;;;;;7.57;2.20;;;;;;;19.08;78.15;101664.75;4895624;29;20059;-68
2023/09/04 09:31:11;;;;;;;4.05;2.20;;;;;;;19.24;79.02;101662.72;4895935;29;20107;-68
2023/09/04 09:34:14;;;;;;;6.47;1.98;;;;;;;19.35;74.63;101661.09;4895690;29;20091;-68
2023/09/04 09:37:19;;;;;;;5.35;2.67;;;;;;;19.41;75.94;101668.63;4896152;29;20123;-67
2023/09/04 09:40:23;;;;;;;4.57;2.35;;;;;;;19.44;75.15;101663.94;4896017;29;20043;-67
2023/09/04 09:43:27;;;;;;;6.85;2.45;;;;;;;19.65;75.14;101652.75;4895893;29;20043;-67
2023/09/04 09:46:32;;;;;;;7.18;2.78;;;;;;;19.68;73.97;101648.06;4895840;29;20168;-67
2023/09/04 09:49:36;;;;;;;6.57;2.30;;;;;;;19.79;73.49;101643.81;4895684;29;20055;-68
2023/09/04 09:52:56;;;;;;;7.82;2.30;;;;;;;19.82;73.75;101636.47;4895827;29;20055;-65
2023/09/04 09:56:00;;;;;;;9.80;3.53;;;;;;;19.98;72.46;101636.19;4894717;29;20144;-67
2023/09/04 09:59:04;;;;;;;5.32;2.90;;;;;;;20.03;73.04;101633.16;4895715;29;20116;-67
2023/09/04 10:02:07;;;;;;;3.85;2.28;;;;;;;20.22;72.41;101622.84;4895537;29;20071;-68
2023/09/04 10:05:10;;;;;;;4.25;2.40;;;;;;;20.28;71.55;101621.56;4895485;29;20099;-68
2023/09/04 10:08:14;;;;;;;6.13;2.40;;;;;;;20.38;70.22;101610.09;4894883;29;20047;-68
2023/09/04 10:11:17;;;;;;;15.00;7.18;;;;;;;20.39;71.08;101608.31;4895485;29;20071;-70
2023/09/04 10:14:31;;;;;;;8.45;3.55;;;;;;;20.45;70.65;101597.19;4896507;29;20047;-66
2023/09/04 10:17:40;;;;;;;3.90;2.45;;;;;;;20.62;69.84;101593.28;4896627;29;20188;-72
2023/09/04 10:20:44;;;;;;;4.90;2.10;;;;;;;20.69;69.19;101585.69;4896480;29;20051;-69
2023/09/04 10:23:55;;;;;;;4.47;2.03;;;;;;;20.69;69.35;101585.69;4896053;29;20124;-67
2023/09/04 10:27:05;;;;;;;8.05;3.13;;;;;;;20.87;68.82;101581.56;4895508;29;20471;-70
2023/09/04 10:30:14;;;;;;;6.18;2.47;;;;;;;21.02;67.58;101566.19;4896305;29;20054;-67
2023/09/04 10:33:19;;;;;;;4.30;2.53;;;;;;;21.10;66.45;101564.63;4894715;29;20123;-67
2023/09/04 10:36:22;;;;;;;7.53;2.28;;;;;;;21.11;65.90;101563.66;4896278;29;20151;-68
2023/09/04 10:39:26;;;;;;;5.68;2.42;;;;;;;21.12;66.71;101570.69;4900274;29;20454;-69
2023/09/04 10:42:30;;;;;;;8.43;4.32;;;;;;;21.17;66.53;101566.78;4899232;29;20412;-67
2023/09/04 10:45:33;;;;;;;8.20;3.03;;;;;;;21.36;65.96;101561.72;4898912;29;20068;-66
2023/09/04 10:48:41;;;;;;;8.15;2.83;;;;;;;21.31;65.58;101562.06;4898771;29;20112;-68
2023/09/04 10:51:47;;;;;;;6.07;2.40;;;;;;;21.45;64.84;101550.31;4898819;29;20143;-67
2023/09/04 10:55:11;;;;;;;5.93;1.90;;;;;;;21.42;64.47;101541.75;4898934;29;20487;-68
2023/09/04 10:58:14;;;;;;;3.83;1.98;;;;;;;21.65;63.29;101534.53;4898402;29;20059;-66
2023/09/04 11:01:37;;;;;;;5.50;1.90;;;;;;;21.71;63.80;101534.00;4898611;29;20047;-67
2023/09/04 11:04:40;;;;;;;6.22;2.28;;;;;;;21.61;63.21;101525.09;4898609;29;20098;-67
2023/09/04 11:07:44;;;;;;;3.10;1.90;;;;;;;21.78;62.00;101527.19;4898472;29;20507;-66
2023/09/04 11:10:59;;;;;;;4.88;2.03;;;;;;;21.76;62.50;101521.13;4886994;29;20060;-66
2023/09/04 11:14:05;;;;;;;4.88;2.25;;;;;;;21.87;62.26;101523.75;4898335;29;20047;-67
2023/09/04 11:17:09;;;;;;;3.58;2.20;;;;;;;21.96;60.72;101512.34;4886989;29;20056;-67
2023/09/04 11:20:14;;;;;;;2.95;1.70;;;;;;;22.00;59.73;101502.25;4898030;29;20132;-66
2023/09/04 11:23:18;;;;;;;4.68;2.10;;;;;;;22.10;60.78;101510.31;4898281;29;20134;-67
2023/09/04 11:26:21;;;;;;;3.30;1.90;;;;;;;22.24;58.44;101505.53;4898013;29;20095;-67
2023/09/04 11:29:26;;;;;;;4.50;2.58;;;;;;;22.22;59.37;101503.97;4898563;29;20071;-66
2023/09/04 11:32:36;;;;;;;3.60;1.40;;;;;;;22.32;58.51;101506.69;4898210;29;20051;-66
2023/09/04 11:35:41;;;;;;;4.75;1.83;;;;;;;22.47;57.49;101495.53;4898353;29;20059;-66
2023/09/04 11:39:05;;;;;;;2.42;1.25;;;;;;;22.50;57.59;101495.28;4898708;29;20046;-65
2023/09/04 11:42:09;;;;;;;2.83;1.35;;;;;;;22.56;54.64;101493.91;4898122;29;20506;-67
2023/09/04 11:45:14;;;;;;;3.72;1.95;;;;;;;22.55;55.27;101491.34;4886291;29;20159;-67
2023/09/04 11:48:17;;;;;;;2.65;1.30;;;;;;;22.65;54.86;101484.22;4897708;29;20046;-67
2023/09/04 11:51:21;;;;;;;2.92;1.25;;;;;;;22.69;51.14;101481.16;4897022;29;20055;-67
2023/09/04 11:54:36;;;;;;;2.83;1.15;;;;;;;22.85;50.11;101478.00;4897773;29;20127;-67
2023/09/04 11:57:41;;;;;;;2.90;1.58;;;;;;;22.92;49.17;101479.13;4898113;29;20425;-67
2023/09/04 12:00:46;;;;;;;5.13;1.75;;;;;;;22.94;48.62;101482.53;4898075;29;20135;-67
2023/09/04 12:03:53;;;;;;;5.07;1.50;;;;;;;23.07;46.58;101471.59;4897143;29;20055;-67
2023/09/04 12:06:57;;;;;;;2.75;1.30;;;;;;;23.19;46.07;101474.97;4897590;29;20151;-66
2023/09/04 12:10:01;;;;;;;2.95;1.50;;;;;;;23.31;44.25;101462.34;4897080;29;20048;-66
2023/09/04 12:13:04;;;;;;;3.95;1.33;;;;;;;23.60;44.09;101467.66;4897355;29;20131;-66
2023/09/04 12:16:09;;;;;;;4.40;1.33;;;;;;;23.66;42.88;101464.44;4898354;29;20056;-66
2023/09/04 12:19:17;;;;;;;2.55;1.33;;;;;;;23.72;40.86;101461.22;4898254;29;20055;-74
2023/09/04 12:22:23;;;;;;;3.05;1.30;;;;;;;23.85;40.72;101453.75;4897880;29;20101;-83
2023/09/04 12:25:39;;;;;;;2.60;1.20;;;;;;;24.06;44.17;101453.56;4910871;29;20051;-76
2023/09/04 12:28:44;;;;;;;2.55;1.10;;;;;;;24.28;42.30;101452.34;4917471;29;20139;-77
2023/09/04 12:31:48;;;;;;;4.32;1.00;;;;;;;24.59;37.26;101446.72;4916425;29;20517;-81
2023/09/04 12:35:08;;;;;;;5.15;1.45;;;;;;;24.81;38.62;101451.66;4916521;29;20067;-83
2023/09/04 12:38:14;;;;;;;3.08;1.35;;;;;;;25.11;38.63;101448.78;4916041;29;20187;-81
2023/09/04 12:41:28;;;;;;;7.15;1.33;;;;;;;25.33;34.62;101447.50;4916380;29;20103;-78
2023/09/04 12:44:31;;;;;;;3.08;1.17;;;;;;;25.77;36.63;101442.16;4916179;29;20149;-78
2023/09/04 12:47:34;;;;;;;3.25;1.58;;;;;;;26.06;35.62;101442.72;4916203;29;20043;-78
2023/09/04 12:50:38;;;;;;;2.80;1.60;;;;;;;26.66;35.22;101437.31;4916247;29;20054;-76
2023/09/04 12:53:41;;;;;;;2.42;1.35;;;;;;;27.24;34.66;101434.75;4916007;29;20134;-77
2023/09/04 12:56:45;;;;;;;2.80;1.40;;;;;;;27.51;32.95;101431.72;4904315;29;20553;-77
2023/09/04 12:59:49;;;;;;;4.07;1.40;;;;;;;27.52;33.63;101428.03;4915760;29;20510;-77
2023/09/04 13:02:54;;;;;;;3.33;1.23;;;;;;;27.97;32.49;101421.25;4914940;29;20086;-75
2023/09/04 13:05:58;;;;;;;3.22;1.45;;;;;;;28.20;33.75;101421.34;4915760;29;20082;-80
2023/09/04 13:09:01;;;;;;;3.95;1.88;;;;;;;28.48;32.68;101419.06;4915967;29;20083;-73
2023/09/04 13:12:05;;;;;;;8.18;1.67;;;;;;;28.54;30.62;101411.31;4903793;29;20047;-71
2023/09/04 13:15:09;;;;;;;3.28;1.40;;;;;;;29.00;31.80;101412.16;4915385;29;20447;-70
2023/09/04 13:18:12;;;;;;;4.93;1.63;;;;;;;29.89;30.37;101407.03;4915156;29;20394;-73
2023/09/04 13:21:15;;;;;;;3.15;1.60;;;;;;;30.45;30.57;101398.47;4914872;29;20475;-67
2023/09/04 13:24:19;;;;;;;2.40;1.20;;;;;;;30.83;28.87;101399.13;4915402;29;20111;-68
2023/09/04 13:27:25;;;;;;;2.33;1.27;;;;;;;31.30;28.44;101388.72;4915334;29;20099;-68
2023/09/04 13:30:31;;;;;;;4.25;1.55;;;;;;;32.05;26.90;101381.78;4903700;29;20098;-66
2023/09/04 13:33:37;;;;;;;7.45;2.17;;;;;;;33.87;25.33;101381.56;4915167;29;20426;-72
2023/09/04 13:36:40;;;;;;;4.97;1.30;;;;;;;35.67;23.01;101364.94;4915240;29;20039;-72
2023/09/04 13:39:44;;;;;;;6.05;2.15;;;;;;;38.56;20.01;101360.53;4915144;29;20047;-74
2023/09/04 13:42:48;;;;;;;3.55;1.40;;;;;;;41.90;16.90;101343.91;4915586;29;20059;-74
2023/09/04 13:45:52;;;;;;;3.67;1.75;;;;;;;43.40;14.55;101347.28;4915201;29;20082;-73
2023/09/04 13:48:57;;;;;;;2.60;1.40;;;;;;;43.47;14.52;101345.03;4903407;29;20074;-72
2023/09/04 13:52:00;;;;;;;5.78;2.47;;;;;;;44.27;15.80;101339.41;4914948;29;20107;-75
2023/09/04 13:55:04;;;;;;;4.22;1.80;;;;;;;45.60;13.33;101338.16;4914785;29;20054;-74
2023/09/04 13:58:08;;;;;;;9.20;1.90;;;;;;;44.85;12.80;101326.84;4914720;29;20067;-74
2023/09/04 14:01:19;;;;;;;5.38;1.70;;;;;;;44.95;12.83;101321.19;4914870;29;20047;-78
2023/09/04 14:04:22;;;;;;;4.30;1.63;;;;;;;45.23;12.62;101325.06;4914906;29;20083;-74
2023/09/04 14:07:25;;;;;;;4.65;1.65;;;;;;;46.40;12.51;101317.13;4914777;29;20075;-73
2023/09/04 14:10:30;;;;;;;3.35;1.63;;;;;;;46.17;11.13;101318.84;4915166;29;20074;-74
2023/09/04 14:13:34;;;;;;;3.22;1.70;;;;;;;46.66;11.85;101313.94;4918769;29;20130;-74
2023/09/04 14:16:39;;;;;;;2.38;1.33;;;;;;;47.63;11.01;101309.25;4920967;29;20160;-73
2023/09/04 14:19:43;;;;;;;2.92;1.60;;;;;;;46.93;11.25;101313.13;4921045;29;20552;-74
2023/09/04 14:22:47;;;;;;;3.00;1.20;;;;;;;46.33;10.71;101306.44;4921237;29;20497;-74
2023/09/04 14:25:50;;;;;;;4.60;1.70;;;;;;;46.38;11.67;101303.59;4920393;29;20047;-74